Time;durP1;ratioP1;P1;durP2;ratioP2;P2;SDS_P1;SDS_P2;PMS_P1;PMS_P2;Temp;Humidity;BMP_temperature;BMP_pressure;BME280_temperature;BME280_humidity;BME280_pressure;Samples;Min_cycle;Max_cycle;Signal;HPM_P1;HPM_P2
2022/08/30 00:03:23;;;;;;;64.30;61.75;;;;;;;16.14;95.61;102273.03;5080563;28;20059;-75
2022/08/30 00:05:49;;;;;;;63.13;60.72;;;;;;;16.12;95.02;102267.03;5080213;28;20547;-75
2022/08/30 00:08:14;;;;;;;62.97;60.55;;;;;;;16.13;95.21;102266.03;5079532;28;20028;-75
2022/08/30 00:10:41;;;;;;;64.70;62.25;;;;;;;16.14;96.55;102270.38;5060952;28;20058;-75
2022/08/30 00:13:07;;;;;;;72.47;69.60;;;;;;;16.04;97.86;102265.09;5080322;28;20119;-75
2022/08/30 00:15:33;;;;;;;81.15;78.03;;;;;;;16.09;97.86;102277.97;5074622;28;20021;-75
2022/08/30 00:17:59;;;;;;;81.72;78.63;;;;;;;16.07;97.43;102274.59;5077831;28;20107;-75
2022/08/30 00:20:28;;;;;;;89.30;85.72;;;;;;;16.06;98.15;102281.78;5074197;28;20607;-75
2022/08/30 00:22:54;;;;;;;78.63;75.63;;;;;;;15.91;97.16;102265.47;5073092;28;20024;-75
2022/08/30 00:25:20;;;;;;;83.85;80.70;;;;;;;15.99;97.81;102281.53;5079162;28;20093;-75
2022/08/30 00:27:46;;;;;;;82.40;79.20;;;;;;;15.94;98.41;102278.50;5075903;28;20056;-75
2022/08/30 00:30:12;;;;;;;92.95;89.22;;;;;;;15.97;98.45;102282.69;5078615;28;20013;-75
2022/08/30 00:32:38;;;;;;;99.75;95.85;;;;;;;15.91;99.33;102280.63;5073369;28;20452;-75
2022/08/30 00:35:05;;;;;;;101.63;97.63;;;;;;;15.77;98.80;102261.50;5075601;28;20028;-75
2022/08/30 00:37:31;;;;;;;97.57;93.82;;;;;;;15.85;97.65;102279.38;5077014;28;20043;-75
2022/08/30 00:39:56;;;;;;;102.70;98.65;;;;;;;15.77;98.52;102273.97;5080351;28;20033;-74
2022/08/30 00:42:22;;;;;;;97.80;93.93;;;;;;;15.71;98.96;102277.22;5078764;28;20077;-74
2022/08/30 00:44:47;;;;;;;101.07;97.13;;;;;;;15.71;99.55;102277.22;5059553;28;20404;-75
2022/08/30 00:47:14;;;;;;;101.05;96.88;;;;;;;15.60;99.30;102265.75;5043852;28;20024;-75
2022/08/30 00:49:44;;;;;;;88.55;85.13;;;;;;;15.66;97.86;102275.00;5072446;28;20453;-74
2022/08/30 00:52:11;;;;;;;87.65;84.20;;;;;;;15.54;98.30;102261.03;5082957;28;20389;-74
2022/08/30 00:54:39;;;;;;;103.55;99.38;;;;;;;15.58;99.30;102275.72;5075522;28;20024;-74
2022/08/30 00:57:04;;;;;;;100.25;96.35;;;;;;;15.54;100.00;102279.66;5079309;28;20058;-74
2022/08/30 00:59:31;;;;;;;106.93;102.72;;;;;;;15.50;100.00;102286.25;5075196;28;20032;-74
2022/08/30 01:01:56;;;;;;;100.13;96.10;;;;;;;15.49;100.00;102284.59;5077408;28;20029;-75
2022/08/30 01:04:24;;;;;;;100.25;96.13;;;;;;;15.46;100.00;102279.59;5077550;28;20116;-75
2022/08/30 01:06:50;;;;;;;90.70;87.10;;;;;;;15.34;100.00;102257.63;5075821;28;20044;-75
2022/08/30 01:09:16;;;;;;;97.43;93.55;;;;;;;15.47;100.00;102286.56;5062355;28;20031;-75
2022/08/30 01:11:43;;;;;;;95.75;92.03;;;;;;;15.32;100.00;102264.91;5076322;28;20021;-75
2022/08/30 01:14:10;;;;;;;96.38;92.68;;;;;;;15.39;99.89;102276.63;5075983;28;20476;-75
2022/08/30 01:16:38;;;;;;;94.00;90.35;;;;;;;15.38;99.63;102274.16;5076765;28;20020;-75
2022/08/30 01:19:05;;;;;;;91.93;88.43;;;;;;;15.38;99.11;102276.81;5072039;28;20478;-75
2022/08/30 01:21:40;;;;;;;84.13;80.93;;;;;;;15.26;97.69;102256.69;5073765;28;20141;-75
2022/08/30 01:24:07;;;;;;;85.25;81.97;;;;;;;15.36;98.07;102281.44;5077548;28;20029;-75
2022/08/30 01:26:34;;;;;;;84.05;80.80;;;;;;;15.27;98.77;102275.16;5077660;28;20039;-75
2022/08/30 01:29:05;;;;;;;86.90;83.53;;;;;;;15.33;99.32;102281.72;5075274;28;20044;-75
2022/08/30 01:31:35;;;;;;;;;;;;;;;15.32;98.70;102272.91;5077249;28;20066;-75
2022/08/30 01:34:06;;;;;;;74.93;71.97;;;;;;;15.32;97.93;102282.72;5074557;28;19912;-75
2022/08/30 01:36:33;;;;;;;71.88;69.13;;;;;;;15.29;96.60;102283.00;5074749;28;20531;-75
2022/08/30 01:38:58;;;;;;;68.72;66.13;;;;;;;15.27;96.01;102284.97;5072727;28;20024;-75
2022/08/30 01:41:26;;;;;;;65.97;63.38;;;;;;;15.27;95.23;102285.81;5078714;28;20034;-76
2022/08/30 01:43:55;;;;;;;64.78;62.17;;;;;;;15.28;95.17;102294.63;5078782;28;20028;-75
2022/08/30 01:46:24;;;;;;;61.53;59.22;;;;;;;15.28;94.26;102291.97;5074856;28;20032;-76
2022/08/30 01:48:52;;;;;;;61.22;58.75;;;;;;;15.30;94.25;102295.31;5075941;28;20063;-75
2022/08/30 01:51:18;;;;;;;59.88;57.45;;;;;;;15.24;94.56;102278.09;5068858;28;20460;-75
2022/08/30 01:53:44;;;;;;;58.97;56.72;;;;;;;15.30;94.80;102290.00;5078252;28;20028;-75
2022/08/30 01:56:11;;;;;;;65.07;62.58;;;;;;;15.20;95.05;102274.09;5073387;28;20380;-75
2022/08/30 01:58:38;;;;;;;63.92;61.45;;;;;;;15.29;94.76;102293.66;5078225;28;20039;-75
2022/08/30 02:01:06;;;;;;;63.03;60.60;;;;;;;15.30;95.90;102309.44;5074980;28;20052;-75
2022/08/30 02:03:34;;;;;;;59.08;56.75;;;;;;;15.32;95.58;102306.66;5077737;28;20051;-75
2022/08/30 02:06:04;;;;;;;57.95;55.78;;;;;;;15.31;94.32;102296.97;5074514;28;20130;-75
2022/08/30 02:08:30;;;;;;;55.92;53.63;;;;;;;15.32;94.38;102304.00;5075985;28;20028;-75
2022/08/30 02:10:56;;;;;;;60.42;58.13;;;;;;;15.33;94.41;102306.50;5061311;28;20024;-75
2022/08/30 02:13:22;;;;;;;58.28;56.05;;;;;;;15.23;94.08;102290.56;5075594;28;20466;-75
2022/08/30 02:15:47;;;;;;;56.80;54.63;;;;;;;15.33;94.47;102305.66;5073396;28;20066;-75
2022/08/30 02:18:13;;;;;;;58.40;55.97;;;;;;;15.33;95.38;102305.66;5074071;28;20456;-75
2022/08/30 02:20:39;;;;;;;60.72;58.20;;;;;;;15.33;95.35;102310.97;5070640;28;20021;-75
2022/08/30 02:23:04;;;;;;;59.22;56.92;;;;;;;15.23;94.87;102301.22;5075778;28;20028;-75
2022/08/30 02:25:30;;;;;;;62.75;60.35;;;;;;;15.30;94.91;102311.28;5060561;28;20027;-75
2022/08/30 02:27:55;;;;;;;62.90;60.33;;;;;;;15.27;94.77;102307.09;5076135;28;20063;-75
2022/08/30 02:30:20;;;;;;;61.55;59.17;;;;;;;15.28;94.91;102305.25;5076100;28;20016;-75
2022/08/30 02:32:46;;;;;;;60.10;57.80;;;;;;;15.21;94.43;102303.16;5072545;28;20111;-75
2022/08/30 02:35:11;;;;;;;62.17;59.78;;;;;;;15.07;94.32;102282.38;5074645;28;20497;-75
2022/08/30 02:37:37;;;;;;;64.25;61.75;;;;;;;15.25;94.89;102314.38;5059041;28;20064;-75
2022/08/30 02:40:03;;;;;;;66.53;63.95;;;;;;;15.26;95.81;102315.19;5061334;28;20149;-75
2022/08/30 02:42:28;;;;;;;66.45;63.90;;;;;;;15.26;96.23;102312.53;5077130;28;20028;-75
2022/08/30 02:44:54;;;;;;;65.53;62.97;;;;;;;15.25;96.04;102303.72;5072542;28;20035;-74
2022/08/30 02:47:19;;;;;;;58.85;56.60;;;;;;;15.19;96.28;102305.13;5082861;28;20111;-74
2022/08/30 02:49:44;;;;;;;68.30;65.68;;;;;;;15.13;97.43;102295.06;5079374;28;20395;-74
2022/08/30 02:52:10;;;;;;;67.50;64.97;;;;;;;15.22;97.30;102306.66;5075615;28;20078;-74
2022/08/30 02:54:35;;;;;;;68.03;65.43;;;;;;;15.15;96.81;102301.09;5079782;28;20040;-75
2022/08/30 02:57:03;;;;;;;68.03;65.18;;;;;;;15.18;96.43;102308.78;5080577;28;20026;-75
2022/08/30 02:59:29;;;;;;;70.80;68.07;;;;;;;15.18;96.66;102306.13;5062625;28;20039;-75
2022/08/30 03:01:54;;;;;;;65.57;63.08;;;;;;;15.17;96.38;102312.41;5077156;28;20035;-75
2022/08/30 03:04:20;;;;;;;68.05;65.40;;;;;;;15.11;95.68;102301.53;5079023;28;20023;-75
2022/08/30 03:06:45;;;;;;;63.08;60.63;;;;;;;15.15;95.80;102302.91;5076862;28;20059;-75
2022/08/30 03:09:11;;;;;;;70.53;67.78;;;;;;;15.14;99.35;102299.44;5080428;28;20036;-75
2022/08/30 03:11:36;;;;;;;74.18;71.38;;;;;;;15.13;99.33;102302.22;5075112;28;20043;-75
2022/08/30 03:14:02;;;;;;;78.43;75.38;;;;;;;15.14;100.00;102307.41;5078070;28;20476;-75
2022/08/30 03:16:27;;;;;;;79.85;76.72;;;;;;;15.12;100.00;102308.53;5079785;28;20040;-75
2022/08/30 03:18:53;;;;;;;89.15;85.65;;;;;;;15.11;100.00;102309.50;5079865;28;20392;-75
2022/08/30 03:21:18;;;;;;;90.28;86.70;;;;;;;15.08;100.00;102307.16;5079753;28;20033;-76
2022/08/30 03:23:44;;;;;;;94.55;90.68;;;;;;;14.96;100.00;102306.44;5077952;28;20024;-75
2022/08/30 03:26:13;;;;;;;93.97;90.28;;;;;;;14.97;100.00;102308.16;5080854;28;20064;-75
2022/08/30 03:28:41;;;;;;;97.68;93.72;;;;;;;14.99;100.00;102312.34;5077315;28;20048;-75
2022/08/30 03:31:07;;;;;;;97.18;93.15;;;;;;;14.99;100.00;102309.69;5078945;28;20030;-75
2022/08/30 03:33:33;;;;;;;88.25;84.75;;;;;;;15.01;100.00;102314.84;5080258;28;20032;-75
2022/08/30 03:35:58;;;;;;;93.63;90.03;;;;;;;15.02;100.00;102320.03;5075351;28;20028;-75
2022/08/30 03:38:24;;;;;;;100.85;96.97;;;;;;;15.02;100.00;102312.06;5079672;28;20460;-75
2022/08/30 03:40:50;;;;;;;96.35;92.63;;;;;;;15.03;100.00;102310.22;5074814;28;20033;-75
2022/08/30 03:43:15;;;;;;;78.45;75.32;;;;;;;14.95;100.00;102297.66;5078948;28;20629;-75
2022/08/30 03:45:41;;;;;;;76.55;73.38;;;;;;;15.01;99.77;102302.41;5078822;28;20546;-75
2022/08/30 03:48:07;;;;;;;69.72;66.95;;;;;;;15.02;98.30;102312.06;5075315;28;20126;-75
2022/08/30 03:50:34;;;;;;;71.78;68.97;;;;;;;14.89;97.04;102289.41;5080647;28;20025;-75
2022/08/30 03:53:00;;;;;;;65.20;62.60;;;;;;;14.86;96.58;102281.72;5062111;28;20082;-75
2022/08/30 03:55:27;;;;;;;66.00;63.30;;;;;;;14.97;96.54;102305.50;5078261;28;20373;-75
2022/08/30 03:57:52;;;;;;;66.43;63.88;;;;;;;14.94;96.15;102305.78;5059698;28;20366;-75
2022/08/30 04:00:19;;;;;;;64.40;61.90;;;;;;;14.95;96.63;102312.75;5082014;28;20466;-75
2022/08/30 04:02:45;;;;;;;63.67;61.13;;;;;;;14.96;97.03;102314.44;5077268;28;20019;-75
2022/08/30 04:05:10;;;;;;;65.53;62.97;;;;;;;14.93;96.93;102317.38;5078728;28;20015;-75
2022/08/30 04:07:36;;;;;;;66.43;63.80;;;;;;;14.87;96.73;102320.59;5080155;28;20021;-75
2022/08/30 04:10:03;;;;;;;66.53;63.78;;;;;;;14.84;98.24;102315.59;5075408;28;20115;-75
2022/08/30 04:12:29;;;;;;;70.28;67.22;;;;;;;14.75;99.48;102304.81;5073676;28;20028;-76
2022/08/30 04:14:54;;;;;;;69.88;66.97;;;;;;;14.76;100.00;102309.16;5080020;28;20035;-75
2022/08/30 04:17:20;;;;;;;64.32;61.78;;;;;;;14.75;100.00;102318.09;5073990;28;20140;-75
2022/08/30 04:19:45;;;;;;;71.40;68.60;;;;;;;14.73;100.00;102319.22;5064440;28;20051;-75
2022/08/30 04:22:11;;;;;;;73.88;71.00;;;;;;;14.71;100.00;102321.19;5074330;28;20534;-75
2022/08/30 04:24:37;;;;;;;73.82;71.00;;;;;;;14.70;100.00;102320.38;5080633;28;20063;-75
2022/08/30 04:27:03;;;;;;;73.55;70.78;;;;;;;14.64;100.00;102306.81;5072377;28;20060;-75
2022/08/30 04:29:28;;;;;;;84.05;80.53;;;;;;;14.62;100.00;102306.94;5080992;28;20032;-75
2022/08/30 04:31:53;;;;;;;71.20;68.30;;;;;;;14.59;100.00;102301.91;5078335;28;20111;-75
2022/08/30 04:34:19;;;;;;;73.90;70.95;;;;;;;14.63;100.00;102318.41;5061737;28;20035;-75
2022/08/30 04:36:44;;;;;;;69.05;66.22;;;;;;;14.63;100.00;102323.72;5075364;28;20126;-76
2022/08/30 04:39:09;;;;;;;81.38;77.95;;;;;;;14.52;100.00;102314.03;5076830;28;20035;-75
2022/08/30 04:41:39;;;;;;;68.47;65.80;;;;;;;14.58;100.00;102332.09;5075009;28;20453;-75
2022/08/30 04:44:06;;;;;;;69.57;66.90;;;;;;;14.28;100.00;102282.56;5069817;28;20490;-75
2022/08/30 04:46:33;;;;;;;71.93;69.03;;;;;;;14.54;100.00;102320.03;5082969;28;20106;-75
2022/08/30 04:48:58;;;;;;;72.07;69.15;;;;;;;14.58;100.00;102337.41;5057456;28;20033;-75
2022/08/30 04:51:24;;;;;;;70.60;67.85;;;;;;;14.52;100.00;102332.63;5076307;28;20073;-75
2022/08/30 04:53:49;;;;;;;75.18;72.22;;;;;;;14.54;100.00;102342.13;5080962;28;20126;-74
2022/08/30 04:56:21;;;;;;;77.65;74.50;;;;;;;14.47;100.00;102330.38;5074420;28;20092;-75
2022/08/30 04:58:48;;;;;;;70.32;67.28;;;;;;;14.44;100.00;102333.34;5076668;28;20039;-75
2022/08/30 05:01:19;;;;;;;66.40;63.70;;;;;;;14.48;100.00;102347.16;5070196;28;20098;-74
2022/08/30 05:03:46;;;;;;;68.47;65.47;;;;;;;14.36;100.00;102320.75;5075059;28;20017;-74
2022/08/30 05:06:11;;;;;;;69.63;66.85;;;;;;;14.30;100.00;102313.31;5058930;28;20128;-75
2022/08/30 05:08:37;;;;;;;71.75;68.95;;;;;;;14.47;100.00;102342.84;5051148;28;20339;-75
2022/08/30 05:11:05;;;;;;;69.50;66.70;;;;;;;14.47;100.00;102348.16;5069038;28;20020;-75
2022/08/30 05:13:31;;;;;;;68.28;65.55;;;;;;;14.47;100.00;102350.81;5064523;28;20545;-74
2022/08/30 05:15:58;;;;;;;68.65;65.97;;;;;;;14.48;100.00;102345.38;5069561;28;20480;-74
2022/08/30 05:18:23;;;;;;;70.93;68.05;;;;;;;14.48;100.00;102350.69;5073760;28;20362;-74
2022/08/30 05:20:48;;;;;;;67.43;64.65;;;;;;;14.38;100.00;102332.06;5070996;28;20035;-74
2022/08/30 05:23:14;;;;;;;65.32;62.80;;;;;;;14.49;100.00;102357.66;5072912;28;20040;-69
2022/08/30 05:25:41;;;;;;;65.32;62.80;;;;;;;14.50;99.75;102358.50;5071954;28;20031;-73
2022/08/30 05:28:07;;;;;;;60.58;58.15;;;;;;;14.49;98.75;102360.31;5073329;28;20051;-75
2022/08/30 05:30:35;;;;;;;58.30;56.05;;;;;;;14.51;97.85;102363.66;5068851;28;20083;-75
2022/08/30 05:33:01;;;;;;;67.07;64.30;;;;;;;14.53;98.07;102366.19;5071921;28;20667;-75
2022/08/30 05:35:27;;;;;;;56.33;54.03;;;;;;;14.58;98.93;102364.81;5076092;28;20123;-75
2022/08/30 05:37:53;;;;;;;59.10;56.83;;;;;;;14.55;99.83;102366.94;5074683;28;20036;-75
2022/08/30 05:40:19;;;;;;;69.22;66.45;;;;;;;14.56;100.00;102357.97;5081179;28;20024;-75
2022/08/30 05:42:45;;;;;;;65.65;63.08;;;;;;;14.66;100.00;102372.09;5073852;28;20093;-75
2022/08/30 05:45:12;;;;;;;66.18;63.60;;;;;;;14.65;100.00;102365.09;5076754;28;20527;-75
2022/08/30 05:47:37;;;;;;;61.78;59.42;;;;;;;14.58;100.00;102353.34;5053778;28;20520;-75
2022/08/30 05:50:05;;;;;;;64.47;61.92;;;;;;;14.66;100.00;102361.47;5075587;28;20028;-75
2022/08/30 05:52:34;;;;;;;71.95;69.07;;;;;;;14.66;100.00;102363.31;5077971;28;20034;-76
2022/08/30 05:55:02;;;;;;;70.20;67.40;;;;;;;14.63;100.00;102351.09;5079115;28;20024;-75
2022/08/30 05:57:31;;;;;;;64.65;61.70;;;;;;;14.63;100.00;102345.78;5074110;28;20035;-75
2022/08/30 05:59:57;;;;;;;62.47;60.00;;;;;;;14.78;100.00;102360.34;5067038;28;20400;-75
2022/08/30 06:02:22;;;;;;;68.63;65.90;;;;;;;14.84;100.00;102363.44;5073127;28;20062;-75
2022/08/30 06:04:47;;;;;;;62.28;59.85;;;;;;;14.87;100.00;102373.78;5071383;28;20044;-75
2022/08/30 06:07:13;;;;;;;72.40;69.53;;;;;;;14.91;100.00;102377.81;5068588;28;20485;-75
2022/08/30 06:09:38;;;;;;;71.53;68.70;;;;;;;14.84;100.00;102352.81;5076225;28;20043;-75
2022/08/30 06:12:04;;;;;;;70.60;67.72;;;;;;;14.90;100.00;102360.22;5058056;28;20021;-75
2022/08/30 06:14:29;;;;;;;68.60;65.88;;;;;;;14.94;100.00;102367.75;5074318;28;20071;-75
2022/08/30 06:16:55;;;;;;;70.80;68.03;;;;;;;15.09;100.00;102383.25;5060544;28;20027;-75
2022/08/30 06:19:22;;;;;;;70.13;67.32;;;;;;;15.11;100.00;102387.47;5071826;28;20070;-75
2022/08/30 06:21:48;;;;;;;76.30;73.13;;;;;;;15.18;100.00;102388.56;5068554;28;20533;-75
2022/08/30 06:24:14;;;;;;;82.45;79.15;;;;;;;15.09;100.00;102364.66;5080661;28;20473;-75
2022/08/30 06:26:42;;;;;;;81.53;78.25;;;;;;;15.35;100.00;102380.81;5079744;28;20024;-75
2022/08/30 06:29:11;;;;;;;74.47;71.45;;;;;;;15.33;100.00;102365.03;5077117;28;20016;-75
2022/08/30 06:31:37;;;;;;;76.07;72.43;;;;;;;15.52;100.00;102381.91;5074927;28;20089;-75
2022/08/30 06:34:03;;;;;;;67.90;65.05;;;;;;;15.62;100.00;102386.22;5079636;28;20027;-75
2022/08/30 06:36:29;;;;;;;69.97;67.18;;;;;;;15.76;98.13;102382.25;5073366;28;20516;-75
2022/08/30 06:38:57;;;;;;;73.30;70.40;;;;;;;15.76;97.16;102378.75;5076488;28;20028;-75
2022/08/30 06:41:28;;;;;;;72.30;69.28;;;;;;;15.82;96.74;102370.19;5082199;28;20073;-75
2022/08/30 06:43:55;;;;;;;72.80;69.80;;;;;;;16.06;95.94;102382.13;5075454;28;20079;-75
2022/08/30 06:46:29;;;;;;;76.88;73.63;;;;;;;16.25;95.40;102382.03;5073031;28;20061;-75
2022/08/30 06:48:55;;;;;;;80.95;77.65;;;;;;;16.37;93.52;102393.28;5074165;28;20400;-75
2022/08/30 06:51:30;;;;;;;83.55;80.28;;;;;;;16.49;92.17;102389.44;5072878;28;20030;-76
2022/08/30 06:53:57;;;;;;;81.50;78.22;;;;;;;16.66;90.78;102387.78;5072818;28;20074;-75
2022/08/30 06:56:22;;;;;;;83.05;79.85;;;;;;;16.74;89.58;102377.16;5075209;28;20047;-75
2022/08/30 06:58:49;;;;;;;72.85;69.85;;;;;;;16.89;87.90;102374.81;5073806;28;20035;-75
2022/08/30 07:01:20;;;;;;;69.63;66.95;;;;;;;16.95;86.25;102370.72;5077510;28;20024;-75
2022/08/30 07:03:45;;;;;;;68.47;65.88;;;;;;;17.06;85.60;102375.78;5072707;28;20408;-75
2022/08/30 07:06:12;;;;;;;77.75;74.55;;;;;;;17.19;84.35;102376.22;5079411;28;20032;-75
2022/08/30 07:08:38;;;;;;;79.13;75.32;;;;;;;17.74;82.59;102395.53;5074533;28;20028;-76
2022/08/30 07:11:04;;;;;;;68.18;65.53;;;;;;;18.17;78.66;102394.59;5076549;28;20404;-76
2022/08/30 07:13:31;;;;;;;84.97;81.55;;;;;;;18.87;76.49;102394.22;5081805;28;20070;-76
2022/08/30 07:15:56;;;;;;;88.38;84.72;;;;;;;19.45;74.33;102376.25;5074023;28;20181;-76
2022/08/30 07:21:09;;;;;;;45.25;43.40;;;;;;;20.78;68.62;102396.88;5076571;28;20039;-75
2022/08/30 07:23:36;;;;;;;29.25;28.00;;;;;;;20.80;68.20;102396.72;5079789;28;20039;-75
2022/08/30 07:26:07;;;;;;;27.05;25.75;;;;;;;21.48;68.28;102397.59;5082577;28;20024;-75
2022/08/30 07:28:35;;;;;;;27.55;26.52;;;;;;;22.10;64.79;102394.50;5078295;28;20247;-76
2022/08/30 07:31:00;;;;;;;34.55;33.20;;;;;;;22.42;62.89;102392.38;5082509;28;20077;-76
2022/08/30 07:33:26;;;;;;;29.58;28.42;;;;;;;22.83;61.20;102407.88;5078055;28;20044;-76
2022/08/30 07:35:51;;;;;;;26.48;25.45;;;;;;;22.95;60.88;102405.47;5073883;28;20116;-76
2022/08/30 07:38:17;;;;;;;26.48;25.48;;;;;;;23.12;59.87;102408.75;5034928;28;20020;-76
2022/08/30 07:40:43;;;;;;;29.35;28.17;;;;;;;22.80;59.64;102406.41;5078866;28;20058;-76
2022/08/30 07:43:08;;;;;;;27.10;25.92;;;;;;;23.08;59.30;102413.72;5077359;28;20328;-76
2022/08/30 07:45:35;;;;;;;24.85;23.90;;;;;;;23.54;58.83;102396.16;5070351;28;20087;-76
2022/08/30 07:48:01;;;;;;;24.95;23.95;;;;;;;23.92;57.08;102409.25;5080067;28;20592;-76
2022/08/30 07:50:26;;;;;;;23.23;22.20;;;;;;;23.91;58.35;102396.78;5073117;28;20604;-76
2022/08/30 07:52:51;;;;;;;21.55;20.52;;;;;;;23.83;57.71;102408.59;5078854;28;20032;-76
2022/08/30 07:55:17;;;;;;;19.83;18.92;;;;;;;23.41;57.41;102407.72;5078082;28;20031;-76
2022/08/30 07:57:42;;;;;;;18.38;17.63;;;;;;;24.71;56.40;102413.22;5083695;28;20495;-76
2022/08/30 08:00:08;;;;;;;18.65;17.95;;;;;;;24.76;56.24;102416.13;5070562;28;20028;-76
2022/08/30 08:02:35;;;;;;;21.00;20.20;;;;;;;25.55;54.11;102403.63;5072909;28;20484;-76
2022/08/30 08:05:03;;;;;;;18.58;17.67;;;;;;;25.32;52.94;102421.13;5071255;28;20044;-76
2022/08/30 08:07:31;;;;;;;19.65;18.88;;;;;;;26.22;53.18;102410.44;5077542;28;20035;-76
2022/08/30 08:09:56;;;;;;;22.00;21.13;;;;;;;26.76;51.70;102413.66;5075220;28;20025;-76
2022/08/30 08:12:22;;;;;;;18.92;18.13;;;;;;;26.45;51.42;102409.88;5054728;28;20024;-76
2022/08/30 08:14:47;;;;;;;19.73;18.98;;;;;;;25.37;53.64;102396.16;5069597;28;20031;-76
2022/08/30 08:17:12;;;;;;;23.05;22.13;;;;;;;25.50;53.78;102396.16;5042085;28;20493;-76
2022/08/30 08:19:38;;;;;;;20.95;19.98;;;;;;;25.49;55.01;102404.47;5071571;28;20111;-76
2022/08/30 08:22:03;;;;;;;20.42;19.63;;;;;;;25.82;53.26;102413.28;5072614;28;20086;-76
2022/08/30 08:24:29;;;;;;;19.13;18.38;;;;;;;25.34;53.42;102410.94;5069011;28;20480;-75
2022/08/30 08:26:55;;;;;;;18.60;17.90;;;;;;;26.09;52.61;102407.81;5059200;28;20036;-75
2022/08/30 08:29:21;;;;;;;17.80;17.10;;;;;;;27.39;48.91;102409.97;5069671;28;20044;-75
2022/08/30 08:31:47;;;;;;;17.80;17.10;;;;;;;26.99;49.48;102414.94;5070134;28;20036;-75
2022/08/30 08:34:14;;;;;;;19.50;18.60;;;;;;;26.84;50.14;102415.25;5077185;28;20081;-75
2022/08/30 08:36:40;;;;;;;19.35;18.55;;;;;;;25.54;52.01;102420.88;5084449;28;20343;-75
2022/08/30 08:39:07;;;;;;;20.30;19.50;;;;;;;24.93;54.21;102422.78;5075687;28;20033;-76
2022/08/30 08:41:49;;;;;;;19.05;18.33;;;;;;;25.48;53.75;102410.91;5078810;28;20377;-76
2022/08/30 08:44:30;;;;;;;19.13;18.33;;;;;;;27.79;50.41;102409.53;5074137;28;20028;-75
2022/08/30 08:47:14;;;;;;;20.10;19.17;;;;;;;28.06;47.77;102412.72;5073548;28;20031;-75
2022/08/30 08:49:44;;;;;;;17.73;16.92;;;;;;;26.47;50.58;102406.94;5070381;28;20193;-75
2022/08/30 08:55:09;;;;;;;22.33;21.25;;;;;;;28.83;48.40;102414.75;5077501;28;20542;-75
2022/08/30 08:57:36;;;;;;;20.63;19.83;;;;;;;28.54;47.58;102421.91;5077235;28;20122;-75
2022/08/30 09:00:05;;;;;;;21.52;20.70;;;;;;;29.10;47.80;102419.75;5078487;28;20055;-75
2022/08/30 09:03:01;;;;;;;18.67;17.98;;;;;;;29.47;47.30;102419.50;5074397;28;20440;-75
2022/08/30 09:05:34;;;;;;;19.00;18.25;;;;;;;27.95;47.87;102408.09;5075890;28;20488;-75
2022/08/30 09:08:03;;;;;;;20.77;19.98;;;;;;;26.35;51.02;102414.94;5083042;28;20443;-75
2022/08/30 09:10:32;;;;;;;21.13;20.33;;;;;;;26.52;51.24;102415.25;5082895;28;20093;-75
2022/08/30 09:12:58;;;;;;;20.80;19.95;;;;;;;27.53;50.97;102410.66;5068438;28;20032;-75
2022/08/30 09:15:27;;;;;;;18.98;18.17;;;;;;;28.92;46.86;102416.06;5078769;28;20028;-75
2022/08/30 09:18:01;;;;;;;19.17;18.48;;;;;;;27.79;49.34;102404.09;5086205;28;20027;-75
2022/08/30 09:20:35;;;;;;;20.10;19.15;;;;;;;28.43;48.71;102406.38;5074948;28;20025;-76
2022/08/30 09:23:13;;;;;;;18.73;17.92;;;;;;;28.49;47.25;102400.06;5078316;28;20023;-76
2022/08/30 09:25:52;;;;;;;21.67;20.73;;;;;;;27.81;47.92;102398.44;5075160;28;20709;-75
2022/08/30 09:28:24;;;;;;;24.13;23.13;;;;;;;28.64;47.36;102396.91;5073450;28;20067;-75
2022/08/30 09:31:17;;;;;;;25.58;24.48;;;;;;;31.00;44.09;102404.38;5073232;28;20095;-76
2022/08/30 09:34:02;;;;;;;28.83;27.75;;;;;;;31.78;41.13;102400.53;5070554;28;20032;-76
2022/08/30 09:36:32;;;;;;;31.05;29.90;;;;;;;31.73;40.93;102405.13;5075386;28;20027;-76
2022/08/30 09:39:05;;;;;;;32.88;31.63;;;;;;;31.44;40.60;102399.81;5069856;28;20017;-76
2022/08/30 09:41:39;;;;;;;33.60;32.30;;;;;;;29.73;43.21;102408.09;5081059;28;20100;-76
2022/08/30 09:44:06;;;;;;;26.85;25.83;;;;;;;28.90;44.93;102414.66;5073064;28;20107;-75
2022/08/30 09:46:31;;;;;;;23.48;22.58;;;;;;;28.84;45.33;102410.16;5078752;28;20031;-75
2022/08/30 09:48:57;;;;;;;24.88;23.92;;;;;;;30.56;43.23;102396.84;5080346;28;20039;-75
2022/08/30 09:51:40;;;;;;;26.48;25.38;;;;;;;27.34;45.83;102398.97;5081221;28;20115;-75
2022/08/30 09:54:23;;;;;;;23.10;22.23;;;;;;;26.97;48.38;102382.63;5068307;28;20020;-75
2022/08/30 09:57:10;;;;;;;22.83;21.98;;;;;;;26.79;50.56;102385.31;5074617;28;20039;-75
2022/08/30 09:59:44;;;;;;;25.73;24.52;;;;;;;27.70;46.80;102390.00;5074708;28;20028;-75
2022/08/30 10:02:42;;;;;;;19.23;18.50;;;;;;;28.98;45.41;102378.94;5067619;28;20039;-75
2022/08/30 10:05:21;;;;;;;23.15;22.25;;;;;;;30.76;42.87;102378.09;5069457;28;20025;-75
2022/08/30 10:08:05;;;;;;;24.25;23.15;;;;;;;29.74;42.07;102385.25;5072172;28;20037;-75
2022/08/30 10:10:51;;;;;;;25.23;24.05;;;;;;;28.31;44.22;102379.22;5073789;28;20095;-75
2022/08/30 10:13:47;;;;;;;24.45;23.55;;;;;;;30.44;43.28;102387.91;5068960;28;20033;-76
2022/08/30 10:16:53;;;;;;;23.35;22.35;;;;;;;27.68;48.24;102380.44;5068506;28;20098;-76
2022/08/30 10:19:43;;;;;;;25.05;24.05;;;;;;;28.69;46.01;102386.97;5060031;28;20090;-75
2022/08/30 10:22:18;;;;;;;26.38;25.38;;;;;;;30.94;43.87;102381.66;5071895;28;20024;-75
2022/08/30 10:24:58;;;;;;;27.40;26.38;;;;;;;32.38;40.79;102390.50;5055035;28;20028;-75
2022/08/30 10:27:34;;;;;;;;;;;;;;;30.43;42.25;102389.00;5075809;28;20109;-76
2022/08/30 10:30:10;;;;;;;31.20;30.00;;;;;;;30.15;41.49;102394.19;5067986;28;19950;-75
2022/08/30 10:32:38;;;;;;;37.28;35.80;;;;;;;30.95;39.59;102397.78;5069222;28;20028;-75
2022/08/30 10:35:19;;;;;;;33.38;32.03;;;;;;;30.19;41.69;102378.22;5072700;28;20028;-75
2022/08/30 10:37:50;;;;;;;28.42;27.30;;;;;;;29.17;42.99;102384.31;5067315;28;20115;-75
2022/08/30 10:43:37;;;;;;;26.30;25.10;;;;;;;29.48;42.24;102386.59;5071927;28;20044;-76
2022/08/30 10:46:10;;;;;;;25.55;24.40;;;;;;;30.86;42.50;102388.38;5069204;28;20028;-76
2022/08/30 10:48:40;;;;;;;23.85;22.83;;;;;;;30.89;39.80;102371.50;5072321;28;20021;-75
2022/08/30 10:51:30;;;;;;;23.27;22.38;;;;;;;31.59;40.00;102390.19;5067489;28;20013;-75
2022/08/30 10:54:02;;;;;;;27.42;26.17;;;;;;;30.48;40.91;102379.00;5070197;28;20111;-75
2022/08/30 10:56:28;;;;;;;25.48;24.48;;;;;;;29.17;43.46;102389.75;5075323;28;20272;-75
2022/08/30 10:58:57;;;;;;;27.65;26.58;;;;;;;27.24;44.97;102385.09;5077454;28;20111;-75
2022/08/30 11:01:53;;;;;;;25.10;24.15;;;;;;;28.08;45.14;102383.47;5052819;28;20410;-75
2022/08/30 11:04:37;;;;;;;21.50;20.70;;;;;;;27.44;45.32;102380.31;5076658;28;20028;-76
2022/08/30 11:07:05;;;;;;;21.52;20.50;;;;;;;26.19;48.81;102374.84;5079229;28;20047;-76
2022/08/30 11:09:44;;;;;;;20.80;20.02;;;;;;;27.19;48.78;102372.19;5081862;28;20028;-75
2022/08/30 11:12:50;;;;;;;18.60;17.90;;;;;;;28.36;45.35;102373.06;5071594;28;20012;-75
2022/08/30 11:15:20;;;;;;;20.55;19.60;;;;;;;28.43;44.74;102381.94;5076459;28;20508;-75
2022/08/30 11:18:06;;;;;;;19.30;18.60;;;;;;;26.98;46.80;102369.91;5079039;28;20388;-76
2022/08/30 11:20:37;;;;;;;22.55;21.73;;;;;;;27.14;47.15;102371.22;5067211;28;20166;-75
2022/08/30 11:23:12;;;;;;;24.88;23.58;;;;;;;28.38;47.06;102351.94;5092860;28;20035;-75
2022/08/30 11:26:11;;;;;;;21.52;20.73;;;;;;;31.36;42.09;102362.06;5064656;28;20032;-75